EJU51QX LKPR-EHAM
Flight info
| Callsign | EJU51QX |
|---|---|
| Flight time | 1h 7m |
| Altitude | 38000 |
| Route | BALTU DCT DONAD DCT VARIK L602 SODRO DCT KATCE DCT APEBE DCT NORKU |
| Aircraft | A320/M-SDE2E3FGHIJ1RWXYZ/LB1 |
Departure
| Time | 2026-05-07 19:23 |
|---|---|
| Airport | Václav Havel Airport Prague (LKPR) |
Arrival
| Time | 2026-05-07 20:30 |
|---|---|
| Airport | Amsterdam Airport Schiphol (EHAM) |
| Time | Latitude | Longitude | Altitude | Speed | Heading |
|---|---|---|---|---|---|
| 2026-05-07 18:45 | 50.10460 | 14.26531 | 1170 ft | 0 kts | 34° |
| 2026-05-07 18:48 | 50.10438 | 14.26586 | 1170 ft | 0 kts | 34° |
| 2026-05-07 19:13 | 50.10430 | 14.26578 | 1171 ft | 4 kts | 33° |
| 2026-05-07 19:13 | 50.10408 | 14.26559 | 1170 ft | 4 kts | 3° |
| 2026-05-07 19:13 | 50.10395 | 14.26563 | 1174 ft | 0 kts | 304° |
| 2026-05-07 19:15 | 50.10396 | 14.26561 | 1174 ft | 1 kts | 304° |
| 2026-05-07 19:15 | 50.10403 | 14.26544 | 1170 ft | 4 kts | 305° |
| 2026-05-07 19:16 | 50.10432 | 14.26480 | 1171 ft | 10 kts | 306° |
| 2026-05-07 19:16 | 50.10478 | 14.26375 | 1172 ft | 14 kts | 304° |
| 2026-05-07 19:16 | 50.10531 | 14.26237 | 1171 ft | 16 kts | 290° |
| 2026-05-07 19:16 | 50.10526 | 14.26055 | 1173 ft | 18 kts | 260° |
| 2026-05-07 19:17 | 50.10457 | 14.26065 | 1173 ft | 15 kts | 126° |
| 2026-05-07 19:17 | 50.10382 | 14.26220 | 1175 ft | 19 kts | 127° |
| 2026-05-07 19:17 | 50.10312 | 14.26365 | 1174 ft | 15 kts | 127° |
| 2026-05-07 19:17 | 50.10259 | 14.26475 | 1172 ft | 11 kts | 127° |
| 2026-05-07 19:18 | 50.10223 | 14.26549 | 1176 ft | 6 kts | 127° |
| 2026-05-07 19:18 | 50.10191 | 14.26615 | 1177 ft | 14 kts | 127° |
| 2026-05-07 19:18 | 50.10102 | 14.26794 | 1184 ft | 26 kts | 126° |
| 2026-05-07 19:18 | 50.10005 | 14.27002 | 1196 ft | 20 kts | 127° |
| 2026-05-07 19:19 | 50.09939 | 14.27136 | 1200 ft | 12 kts | 128° |
| 2026-05-07 19:19 | 50.09889 | 14.27240 | 1202 ft | 13 kts | 127° |
| 2026-05-07 19:19 | 50.09807 | 14.27383 | 1204 ft | 21 kts | 134° |
| 2026-05-07 19:19 | 50.09712 | 14.27528 | 1206 ft | 17 kts | 135° |
| 2026-05-07 19:20 | 50.09615 | 14.27677 | 1210 ft | 21 kts | 135° |
| 2026-05-07 19:20 | 50.09525 | 14.27816 | 1213 ft | 15 kts | 135° |
| 2026-05-07 19:20 | 50.09470 | 14.27899 | 1215 ft | 8 kts | 135° |
| 2026-05-07 19:20 | 50.09400 | 14.28008 | 1215 ft | 21 kts | 135° |
| 2026-05-07 19:21 | 50.09309 | 14.28148 | 1215 ft | 16 kts | 135° |
| 2026-05-07 19:21 | 50.09239 | 14.28252 | 1212 ft | 12 kts | 139° |
| 2026-05-07 19:21 | 50.09171 | 14.28278 | 1211 ft | 8 kts | 193° |
| 2026-05-07 19:21 | 50.09110 | 14.28207 | 1211 ft | 16 kts | 232° |
| 2026-05-07 19:22 | 50.09115 | 14.28023 | 1209 ft | 17 kts | 304° |
| 2026-05-07 19:22 | 50.09196 | 14.27856 | 1211 ft | 34 kts | 307° |
| 2026-05-07 19:22 | 50.09481 | 14.27264 | 1206 ft | 100 kts | 307° |
| 2026-05-07 19:22 | 50.10007 | 14.26175 | 1196 ft | 150 kts | 307° |
| 2026-05-07 19:23 | 50.10639 | 14.24835 | 1809 ft | 151 kts | 307° |
| 2026-05-07 19:23 | 50.11258 | 14.23498 | 2523 ft | 157 kts | 308° |
| 2026-05-07 19:23 | 50.11969 | 14.22050 | 2838 ft | 180 kts | 310° |
| 2026-05-07 19:23 | 50.12792 | 14.20443 | 3230 ft | 199 kts | 310° |
| 2026-05-07 19:24 | 50.13696 | 14.18645 | 3598 ft | 224 kts | 309° |
| 2026-05-07 19:24 | 50.14693 | 14.16602 | 4044 ft | 248 kts | 307° |
| 2026-05-07 19:24 | 50.15749 | 14.14372 | 4826 ft | 257 kts | 306° |
| 2026-05-07 19:24 | 50.16807 | 14.12117 | 5756 ft | 261 kts | 305° |
| 2026-05-07 19:25 | 50.17887 | 14.09801 | 6619 ft | 266 kts | 303° |
| 2026-05-07 19:25 | 50.18704 | 14.07229 | 7481 ft | 268 kts | 282° |
| 2026-05-07 19:25 | 50.18947 | 14.04327 | 8337 ft | 271 kts | 275° |
| 2026-05-07 19:25 | 50.19124 | 14.01377 | 9229 ft | 274 kts | 275° |
| 2026-05-07 19:26 | 50.19302 | 13.98396 | 10082 ft | 278 kts | 275° |
| 2026-05-07 19:26 | 50.19492 | 13.95309 | 10509 ft | 297 kts | 275° |
| 2026-05-07 19:26 | 50.19704 | 13.91982 | 10851 ft | 316 kts | 275° |
| 2026-05-07 19:26 | 50.19933 | 13.88534 | 11559 ft | 322 kts | 276° |
| 2026-05-07 19:27 | 50.20171 | 13.85017 | 12288 ft | 328 kts | 276° |
| 2026-05-07 19:27 | 50.20411 | 13.81458 | 13052 ft | 332 kts | 276° |
| 2026-05-07 19:27 | 50.20651 | 13.77862 | 13806 ft | 335 kts | 276° |
| 2026-05-07 19:27 | 50.20892 | 13.74221 | 14460 ft | 339 kts | 276° |
| 2026-05-07 19:28 | 50.21135 | 13.70543 | 15130 ft | 342 kts | 276° |
| 2026-05-07 19:28 | 50.21378 | 13.66845 | 15799 ft | 344 kts | 276° |
| 2026-05-07 19:28 | 50.21625 | 13.63104 | 16477 ft | 347 kts | 276° |
| 2026-05-07 19:28 | 50.21872 | 13.59342 | 17151 ft | 350 kts | 276° |
| 2026-05-07 19:29 | 50.22116 | 13.55553 | 17822 ft | 353 kts | 276° |
| 2026-05-07 19:29 | 50.22359 | 13.51724 | 18470 ft | 355 kts | 276° |
| 2026-05-07 19:29 | 50.22605 | 13.47872 | 19039 ft | 358 kts | 276° |
| 2026-05-07 19:29 | 50.22851 | 13.43991 | 19606 ft | 360 kts | 276° |
| 2026-05-07 19:30 | 50.23098 | 13.40086 | 20167 ft | 363 kts | 276° |
| 2026-05-07 19:30 | 50.23349 | 13.36143 | 20728 ft | 365 kts | 276° |
| 2026-05-07 19:30 | 50.23601 | 13.32185 | 21281 ft | 368 kts | 277° |
| 2026-05-07 19:30 | 50.23856 | 13.28195 | 21818 ft | 370 kts | 277° |
| 2026-05-07 19:31 | 50.24109 | 13.24181 | 22344 ft | 373 kts | 277° |
| 2026-05-07 19:31 | 50.24359 | 13.20138 | 22865 ft | 376 kts | 277° |
| 2026-05-07 19:31 | 50.24609 | 13.16062 | 23382 ft | 378 kts | 277° |
| 2026-05-07 19:31 | 50.24860 | 13.11951 | 23848 ft | 381 kts | 277° |
| 2026-05-07 19:32 | 50.25110 | 13.07819 | 24283 ft | 383 kts | 277° |
| 2026-05-07 19:32 | 50.25359 | 13.03662 | 24699 ft | 386 kts | 277° |
| 2026-05-07 19:32 | 50.25609 | 12.99477 | 25109 ft | 388 kts | 277° |
| 2026-05-07 19:32 | 50.25861 | 12.95264 | 25496 ft | 391 kts | 277° |
| 2026-05-07 19:33 | 50.26113 | 12.91025 | 25887 ft | 393 kts | 277° |
| 2026-05-07 19:33 | 50.26364 | 12.86761 | 26292 ft | 395 kts | 277° |
| 2026-05-07 19:33 | 50.26613 | 12.82473 | 26687 ft | 397 kts | 277° |
| 2026-05-07 19:33 | 50.26863 | 12.78162 | 27075 ft | 400 kts | 277° |
| 2026-05-07 19:34 | 50.27113 | 12.73821 | 27456 ft | 402 kts | 277° |
| 2026-05-07 19:34 | 50.27363 | 12.69463 | 27844 ft | 404 kts | 277° |
| 2026-05-07 19:34 | 50.27616 | 12.65081 | 28212 ft | 406 kts | 277° |
| 2026-05-07 19:34 | 50.27869 | 12.60675 | 28594 ft | 408 kts | 277° |
| 2026-05-07 19:35 | 50.28120 | 12.56244 | 28961 ft | 410 kts | 276° |
| 2026-05-07 19:35 | 50.28367 | 12.51797 | 29333 ft | 412 kts | 276° |
| 2026-05-07 19:35 | 50.28611 | 12.47310 | 29597 ft | 416 kts | 276° |
| 2026-05-07 19:35 | 50.28860 | 12.42785 | 29890 ft | 419 kts | 277° |
| 2026-05-07 19:36 | 50.29370 | 12.38298 | 30207 ft | 420 kts | 287° |
| 2026-05-07 19:36 | 50.30332 | 12.33988 | 30471 ft | 421 kts | 295° |
| 2026-05-07 19:36 | 50.31570 | 12.29829 | 30728 ft | 423 kts | 296° |
| 2026-05-07 19:36 | 50.32815 | 12.25643 | 30988 ft | 425 kts | 295° |
| 2026-05-07 19:37 | 50.34061 | 12.21426 | 31243 ft | 428 kts | 295° |
| 2026-05-07 19:37 | 50.35324 | 12.17199 | 31479 ft | 430 kts | 296° |
| 2026-05-07 19:37 | 50.36647 | 12.13000 | 31816 ft | 430 kts | 297° |
| 2026-05-07 19:37 | 50.38006 | 12.08836 | 32170 ft | 429 kts | 297° |
| 2026-05-07 19:38 | 50.39383 | 12.04678 | 32484 ft | 430 kts | 297° |
| 2026-05-07 19:38 | 50.40760 | 12.00512 | 32805 ft | 430 kts | 297° |
| 2026-05-07 19:38 | 50.42126 | 11.96342 | 33140 ft | 430 kts | 296° |
| 2026-05-07 19:38 | 50.43482 | 11.92149 | 33497 ft | 430 kts | 296° |
| 2026-05-07 19:39 | 50.44822 | 11.87959 | 33848 ft | 430 kts | 296° |
| 2026-05-07 19:39 | 50.46203 | 11.83843 | 34176 ft | 430 kts | 301° |
| 2026-05-07 19:39 | 50.47963 | 11.80003 | 34449 ft | 431 kts | 309° |
| 2026-05-07 19:39 | 50.49919 | 11.76426 | 34701 ft | 432 kts | 309° |
| 2026-05-07 19:40 | 50.51879 | 11.72848 | 34949 ft | 432 kts | 309° |
| 2026-05-07 19:40 | 50.53840 | 11.69263 | 35197 ft | 432 kts | 309° |
| 2026-05-07 19:40 | 50.55800 | 11.65674 | 35429 ft | 433 kts | 309° |
| 2026-05-07 19:40 | 50.57755 | 11.62083 | 35666 ft | 433 kts | 309° |
| 2026-05-07 19:41 | 50.59711 | 11.58481 | 35906 ft | 433 kts | 309° |
| 2026-05-07 19:41 | 50.61667 | 11.54870 | 36130 ft | 433 kts | 309° |
| 2026-05-07 19:41 | 50.63620 | 11.51258 | 36358 ft | 434 kts | 309° |
| 2026-05-07 19:41 | 50.65575 | 11.47640 | 36580 ft | 434 kts | 309° |
| 2026-05-07 19:42 | 50.67530 | 11.44022 | 36783 ft | 434 kts | 309° |
| 2026-05-07 19:42 | 50.69489 | 11.40394 | 36997 ft | 434 kts | 308° |
| 2026-05-07 19:42 | 50.71444 | 11.36760 | 37199 ft | 434 kts | 308° |
| 2026-05-07 19:42 | 50.73373 | 11.33167 | 37401 ft | 435 kts | 308° |
| 2026-05-07 19:43 | 50.75326 | 11.29526 | 37599 ft | 435 kts | 308° |
| 2026-05-07 19:43 | 50.77278 | 11.25885 | 37832 ft | 434 kts | 308° |
| 2026-05-07 19:43 | 50.79233 | 11.22242 | 38049 ft | 435 kts | 308° |
| 2026-05-07 19:43 | 50.81186 | 11.18595 | 38100 ft | 435 kts | 308° |
| 2026-05-07 19:44 | 50.85117 | 11.11240 | 38105 ft | 435 kts | 308° |
| 2026-05-07 19:44 | 50.88985 | 11.03970 | 38112 ft | 434 kts | 308° |
| 2026-05-07 19:45 | 50.92898 | 10.96593 | 38111 ft | 434 kts | 308° |
| 2026-05-07 19:45 | 50.96781 | 10.89253 | 38122 ft | 434 kts | 308° |
| 2026-05-07 19:46 | 51.00637 | 10.81955 | 38125 ft | 434 kts | 308° |
| 2026-05-07 19:46 | 51.04513 | 10.74589 | 38122 ft | 434 kts | 308° |
| 2026-05-07 19:47 | 51.08380 | 10.67213 | 38116 ft | 434 kts | 308° |
| 2026-05-07 19:47 | 51.12236 | 10.59831 | 38116 ft | 434 kts | 308° |
| 2026-05-07 19:48 | 51.16101 | 10.52437 | 38113 ft | 434 kts | 308° |
| 2026-05-07 19:48 | 51.19950 | 10.45047 | 38121 ft | 435 kts | 308° |
| 2026-05-07 19:49 | 51.23811 | 10.37594 | 38124 ft | 434 kts | 307° |
| 2026-05-07 19:49 | 51.26941 | 10.29437 | 38124 ft | 431 kts | 295° |
| 2026-05-07 19:50 | 51.29677 | 10.20923 | 38119 ft | 431 kts | 296° |
| 2026-05-07 19:50 | 51.32417 | 10.12404 | 38117 ft | 431 kts | 295° |
| 2026-05-07 19:51 | 51.35144 | 10.03879 | 38119 ft | 430 kts | 295° |
| 2026-05-07 19:51 | 51.37868 | 9.95348 | 38127 ft | 430 kts | 295° |
| 2026-05-07 19:52 | 51.40585 | 9.86806 | 38130 ft | 430 kts | 295° |
| 2026-05-07 19:52 | 51.43273 | 9.78313 | 38123 ft | 431 kts | 295° |
| 2026-05-07 19:53 | 51.45536 | 9.71133 | 38126 ft | 431 kts | 295° |
| 2026-05-07 19:53 | 51.48664 | 9.61171 | 38128 ft | 431 kts | 295° |
| 2026-05-07 19:54 | 51.50922 | 9.53976 | 38120 ft | 431 kts | 295° |
| 2026-05-07 19:54 | 51.53597 | 9.45440 | 38120 ft | 431 kts | 295° |
| 2026-05-07 19:55 | 51.56273 | 9.36836 | 38126 ft | 430 kts | 295° |
| 2026-05-07 19:55 | 51.58941 | 9.28218 | 38123 ft | 430 kts | 295° |
| 2026-05-07 19:56 | 51.61605 | 9.19604 | 38120 ft | 430 kts | 295° |
| 2026-05-07 19:56 | 51.64269 | 9.10974 | 38122 ft | 430 kts | 295° |
| 2026-05-07 19:57 | 51.66921 | 9.02332 | 38124 ft | 430 kts | 295° |
| 2026-05-07 19:57 | 51.69564 | 8.93674 | 38120 ft | 430 kts | 295° |
| 2026-05-07 19:58 | 51.72216 | 8.84954 | 38128 ft | 430 kts | 295° |
| 2026-05-07 19:58 | 51.74812 | 8.76333 | 38123 ft | 430 kts | 294° |
| 2026-05-07 19:59 | 51.77255 | 8.67515 | 38124 ft | 430 kts | 292° |
| 2026-05-07 19:59 | 51.79601 | 8.58633 | 38123 ft | 430 kts | 291° |
| 2026-05-07 20:00 | 51.81956 | 8.49751 | 38126 ft | 430 kts | 292° |
| 2026-05-07 20:00 | 51.84333 | 8.40870 | 38127 ft | 430 kts | 292° |
| 2026-05-07 20:01 | 51.86713 | 8.32000 | 38119 ft | 430 kts | 292° |
| 2026-05-07 20:01 | 51.89091 | 8.23121 | 38128 ft | 430 kts | 292° |
| 2026-05-07 20:02 | 51.91456 | 8.14232 | 38126 ft | 430 kts | 292° |
| 2026-05-07 20:02 | 51.93802 | 8.05320 | 38125 ft | 430 kts | 291° |
| 2026-05-07 20:03 | 51.96141 | 7.96414 | 38121 ft | 430 kts | 291° |
| 2026-05-07 20:03 | 51.98489 | 7.87495 | 37881 ft | 430 kts | 291° |
| 2026-05-07 20:04 | 51.99661 | 7.83040 | 37614 ft | 429 kts | 291° |
| 2026-05-07 20:04 | 52.00829 | 7.78583 | 37303 ft | 429 kts | 291° |
| 2026-05-07 20:04 | 52.01989 | 7.74137 | 36741 ft | 427 kts | 291° |
| 2026-05-07 20:04 | 52.03137 | 7.69721 | 36261 ft | 423 kts | 291° |
| 2026-05-07 20:05 | 52.04276 | 7.65327 | 35751 ft | 421 kts | 291° |
| 2026-05-07 20:05 | 52.05407 | 7.60960 | 35271 ft | 418 kts | 291° |
| 2026-05-07 20:05 | 52.06529 | 7.56621 | 34763 ft | 415 kts | 291° |
| 2026-05-07 20:05 | 52.07641 | 7.52304 | 34260 ft | 413 kts | 291° |
| 2026-05-07 20:06 | 52.08749 | 7.47999 | 33680 ft | 411 kts | 291° |
| 2026-05-07 20:06 | 52.09845 | 7.43737 | 33200 ft | 407 kts | 291° |
| 2026-05-07 20:06 | 52.10918 | 7.39562 | 32715 ft | 403 kts | 291° |
| 2026-05-07 20:06 | 52.11991 | 7.35374 | 32229 ft | 399 kts | 291° |
| 2026-05-07 20:07 | 52.13053 | 7.31221 | 31754 ft | 396 kts | 291° |
| 2026-05-07 20:07 | 52.14104 | 7.27101 | 31290 ft | 392 kts | 291° |
| 2026-05-07 20:07 | 52.15143 | 7.23017 | 30828 ft | 389 kts | 291° |
| 2026-05-07 20:07 | 52.16172 | 7.18971 | 30387 ft | 385 kts | 291° |
| 2026-05-07 20:08 | 52.17192 | 7.14958 | 29900 ft | 382 kts | 291° |
| 2026-05-07 20:08 | 52.18199 | 7.10989 | 29481 ft | 376 kts | 291° |
| 2026-05-07 20:08 | 52.19188 | 7.07085 | 29061 ft | 371 kts | 291° |
| 2026-05-07 20:08 | 52.20162 | 7.03230 | 28659 ft | 365 kts | 291° |
| 2026-05-07 20:09 | 52.21146 | 6.99445 | 28260 ft | 361 kts | 295° |
| 2026-05-07 20:09 | 52.22430 | 6.95949 | 27833 ft | 360 kts | 304° |
| 2026-05-07 20:09 | 52.24012 | 6.92735 | 27338 ft | 365 kts | 307° |
| 2026-05-07 20:10 | 52.27229 | 6.86330 | 26388 ft | 364 kts | 307° |
| 2026-05-07 20:10 | 52.28826 | 6.83139 | 25906 ft | 362 kts | 307° |
| 2026-05-07 20:10 | 52.30411 | 6.79958 | 25446 ft | 360 kts | 307° |
| 2026-05-07 20:10 | 52.31982 | 6.76798 | 24979 ft | 358 kts | 307° |
| 2026-05-07 20:11 | 52.33545 | 6.73636 | 24525 ft | 356 kts | 306° |
| 2026-05-07 20:11 | 52.34742 | 6.70162 | 24286 ft | 350 kts | 288° |
| 2026-05-07 20:11 | 52.35211 | 6.66281 | 24049 ft | 347 kts | 270° |
| 2026-05-07 20:11 | 52.34933 | 6.62419 | 23693 ft | 341 kts | 257° |
| 2026-05-07 20:12 | 52.34431 | 6.58633 | 23217 ft | 339 kts | 257° |
| 2026-05-07 20:12 | 52.33929 | 6.54882 | 22792 ft | 336 kts | 257° |
| 2026-05-07 20:12 | 52.33433 | 6.51168 | 22352 ft | 333 kts | 257° |
| 2026-05-07 20:12 | 52.32942 | 6.47485 | 21949 ft | 330 kts | 257° |
| 2026-05-07 20:13 | 52.32456 | 6.43831 | 21549 ft | 328 kts | 257° |
| 2026-05-07 20:13 | 52.31979 | 6.40258 | 21146 ft | 325 kts | 257° |
| 2026-05-07 20:13 | 52.31492 | 6.36606 | 20744 ft | 323 kts | 257° |
| 2026-05-07 20:13 | 52.31015 | 6.33027 | 20343 ft | 322 kts | 257° |
| 2026-05-07 20:14 | 52.30540 | 6.29466 | 19956 ft | 320 kts | 257° |
| 2026-05-07 20:14 | 52.30066 | 6.25917 | 19564 ft | 319 kts | 257° |
| 2026-05-07 20:14 | 52.29590 | 6.22376 | 19174 ft | 318 kts | 257° |
| 2026-05-07 20:14 | 52.29114 | 6.18845 | 18780 ft | 318 kts | 257° |
| 2026-05-07 20:15 | 52.28642 | 6.15368 | 18403 ft | 318 kts | 257° |
| 2026-05-07 20:15 | 52.28165 | 6.11851 | 17979 ft | 317 kts | 257° |
| 2026-05-07 20:15 | 52.27689 | 6.08347 | 17593 ft | 315 kts | 257° |
| 2026-05-07 20:15 | 52.27214 | 6.04865 | 17215 ft | 313 kts | 257° |
| 2026-05-07 20:16 | 52.26741 | 6.01403 | 16844 ft | 312 kts | 257° |
| 2026-05-07 20:16 | 52.26269 | 5.97958 | 16475 ft | 311 kts | 257° |
| 2026-05-07 20:16 | 52.25798 | 5.94525 | 16112 ft | 310 kts | 257° |
| 2026-05-07 20:16 | 52.25327 | 5.91100 | 15755 ft | 309 kts | 257° |
| 2026-05-07 20:17 | 52.24859 | 5.87687 | 15387 ft | 308 kts | 257° |
| 2026-05-07 20:17 | 52.24388 | 5.84281 | 15027 ft | 307 kts | 257° |
| 2026-05-07 20:17 | 52.23918 | 5.80884 | 14667 ft | 307 kts | 257° |
| 2026-05-07 20:17 | 52.23447 | 5.77491 | 14309 ft | 306 kts | 257° |
| 2026-05-07 20:18 | 52.22977 | 5.74109 | 13954 ft | 306 kts | 257° |
| 2026-05-07 20:18 | 52.22505 | 5.70732 | 13570 ft | 305 kts | 257° |
| 2026-05-07 20:18 | 52.22034 | 5.67369 | 13188 ft | 303 kts | 257° |
| 2026-05-07 20:18 | 52.21565 | 5.64026 | 12827 ft | 302 kts | 257° |
| 2026-05-07 20:19 | 52.21097 | 5.60708 | 12472 ft | 300 kts | 257° |
| 2026-05-07 20:19 | 52.20630 | 5.57404 | 12103 ft | 298 kts | 257° |
| 2026-05-07 20:19 | 52.20164 | 5.54120 | 11734 ft | 297 kts | 257° |
| 2026-05-07 20:19 | 52.19701 | 5.50857 | 11367 ft | 295 kts | 257° |
| 2026-05-07 20:20 | 52.19239 | 5.47604 | 10988 ft | 294 kts | 257° |
| 2026-05-07 20:20 | 52.18779 | 5.44367 | 10614 ft | 293 kts | 257° |
| 2026-05-07 20:20 | 52.18318 | 5.41137 | 10238 ft | 292 kts | 256° |
| 2026-05-07 20:20 | 52.17861 | 5.37926 | 9908 ft | 289 kts | 256° |
| 2026-05-07 20:21 | 52.17410 | 5.34755 | 9489 ft | 288 kts | 256° |
| 2026-05-07 20:21 | 52.16958 | 5.31591 | 9082 ft | 287 kts | 256° |
| 2026-05-07 20:21 | 52.16508 | 5.28447 | 8698 ft | 284 kts | 256° |
| 2026-05-07 20:21 | 52.16061 | 5.25323 | 8352 ft | 281 kts | 256° |
| 2026-05-07 20:22 | 52.15619 | 5.22231 | 7932 ft | 280 kts | 256° |
| 2026-05-07 20:22 | 52.15177 | 5.19160 | 7573 ft | 277 kts | 255° |
| 2026-05-07 20:22 | 52.14735 | 5.16106 | 7148 ft | 277 kts | 255° |
| 2026-05-07 20:22 | 52.14293 | 5.13063 | 6715 ft | 277 kts | 255° |
| 2026-05-07 20:23 | 52.13853 | 5.10040 | 6330 ft | 274 kts | 255° |
| 2026-05-07 20:23 | 52.13412 | 5.07025 | 5924 ft | 272 kts | 256° |
| 2026-05-07 20:23 | 52.12972 | 5.04018 | 5484 ft | 271 kts | 255° |
| 2026-05-07 20:23 | 52.12536 | 5.01064 | 5022 ft | 272 kts | 255° |
| 2026-05-07 20:24 | 52.12090 | 4.98037 | 4520 ft | 272 kts | 255° |
| 2026-05-07 20:24 | 52.11665 | 4.95135 | 4287 ft | 252 kts | 256° |
| 2026-05-07 20:24 | 52.11278 | 4.92490 | 4225 ft | 230 kts | 256° |
| 2026-05-07 20:24 | 52.11049 | 4.89993 | 4148 ft | 217 kts | 268° |
| 2026-05-07 20:25 | 52.11056 | 4.87625 | 4053 ft | 204 kts | 269° |
| 2026-05-07 20:25 | 52.11059 | 4.85366 | 3969 ft | 201 kts | 269° |
| 2026-05-07 20:25 | 52.11062 | 4.83061 | 3877 ft | 201 kts | 270° |
| 2026-05-07 20:25 | 52.11376 | 4.80891 | 3805 ft | 192 kts | 297° |
| 2026-05-07 20:26 | 52.12192 | 4.79287 | 3602 ft | 184 kts | 323° |
| 2026-05-07 20:26 | 52.13313 | 4.78285 | 3302 ft | 184 kts | 334° |
| 2026-05-07 20:26 | 52.14459 | 4.77353 | 3014 ft | 184 kts | 334° |
| 2026-05-07 20:26 | 52.15650 | 4.76614 | 2716 ft | 183 kts | 353° |
| 2026-05-07 20:27 | 52.16905 | 4.76608 | 2459 ft | 179 kts | 5° |
| 2026-05-07 20:27 | 52.18123 | 4.76722 | 2204 ft | 171 kts | 6° |
| 2026-05-07 20:27 | 52.19274 | 4.76828 | 1982 ft | 160 kts | 6° |
| 2026-05-07 20:27 | 52.20331 | 4.76925 | 1772 ft | 147 kts | 7° |
| 2026-05-07 20:28 | 52.21314 | 4.77016 | 1573 ft | 141 kts | 7° |
| 2026-05-07 20:28 | 52.22282 | 4.77107 | 1396 ft | 138 kts | 7° |
| 2026-05-07 20:28 | 52.23237 | 4.77196 | 1215 ft | 137 kts | 7° |
| 2026-05-07 20:28 | 52.24177 | 4.77274 | 1014 ft | 135 kts | 7° |
| 2026-05-07 20:29 | 52.25109 | 4.77366 | 843 ft | 134 kts | 7° |
| 2026-05-07 20:29 | 52.26050 | 4.77449 | 658 ft | 134 kts | 6° |
| 2026-05-07 20:29 | 52.26986 | 4.77532 | 465 ft | 134 kts | 6° |
| 2026-05-07 20:29 | 52.27915 | 4.77622 | 282 ft | 133 kts | 6° |
| 2026-05-07 20:30 | 52.28835 | 4.77712 | 87 ft | 133 kts | 6° |
| 2026-05-07 20:30 | 52.29725 | 4.77800 | -1 ft | 117 kts | 4° |
| 2026-05-07 20:30 | 52.30371 | 4.77855 | 1 ft | 68 kts | 2° |
| 2026-05-07 20:30 | 52.30729 | 4.77886 | -3 ft | 39 kts | 2° |
| 2026-05-07 20:31 | 52.30923 | 4.77830 | -3 ft | 25 kts | 340° |
| 2026-05-07 20:31 | 52.31077 | 4.77706 | -1 ft | 25 kts | 333° |
| 2026-05-07 20:31 | 52.31205 | 4.77639 | -1 ft | 14 kts | 1° |
| 2026-05-07 20:31 | 52.31311 | 4.77648 | -1 ft | 16 kts | 3° |
| 2026-05-07 20:32 | 52.31432 | 4.77647 | -1 ft | 18 kts | 345° |
| 2026-05-07 20:32 | 52.31535 | 4.77522 | -1 ft | 19 kts | 314° |
| 2026-05-07 20:32 | 52.31576 | 4.77315 | -1 ft | 20 kts | 266° |
| 2026-05-07 20:32 | 52.31568 | 4.77085 | -1 ft | 20 kts | 267° |
| 2026-05-07 20:33 | 52.31561 | 4.76863 | -1 ft | 19 kts | 266° |
| 2026-05-07 20:33 | 52.31553 | 4.76646 | -1 ft | 20 kts | 266° |
| 2026-05-07 20:33 | 52.31545 | 4.76418 | -1 ft | 20 kts | 266° |
| 2026-05-07 20:33 | 52.31537 | 4.76205 | -1 ft | 18 kts | 266° |
| 2026-05-07 20:34 | 52.31531 | 4.76009 | -1 ft | 16 kts | 266° |
| 2026-05-07 20:34 | 52.31524 | 4.75830 | -1 ft | 15 kts | 267° |
| 2026-05-07 20:34 | 52.31519 | 4.75664 | -1 ft | 14 kts | 266° |
| 2026-05-07 20:34 | 52.31514 | 4.75515 | -1 ft | 10 kts | 266° |
| 2026-05-07 20:35 | 52.31473 | 4.75440 | -1 ft | 10 kts | 190° |
| 2026-05-07 20:35 | 52.31391 | 4.75445 | -1 ft | 14 kts | 176° |
| 2026-05-07 20:35 | 52.31295 | 4.75453 | -1 ft | 13 kts | 176° |
| 2026-05-07 20:35 | 52.31205 | 4.75462 | -1 ft | 13 kts | 176° |
| 2026-05-07 20:36 | 52.31124 | 4.75455 | -1 ft | 9 kts | 189° |
| 2026-05-07 20:36 | 52.31073 | 4.75491 | -1 ft | 5 kts | 149° |
| 2026-05-07 20:36 | 52.31048 | 4.75516 | -1 ft | 1 kts | 148° |
| 2026-05-07 20:36 | 52.31045 | 4.75519 | -1 ft | 0 kts | 148° |